sensor_id;sensor_type;location;lat;lon;timestamp;temperature;humidity
5196;DHT22;2617;51.006;12.436;2023-05-10T00:01:09;11.20;99.60
5196;DHT22;2617;51.006;12.436;2023-05-10T00:06:12;11.10;99.90
5196;DHT22;2617;51.006;12.436;2023-05-10T00:11:14;11.00;99.90
5196;DHT22;2617;51.006;12.436;2023-05-10T00:16:16;11.00;99.90
5196;DHT22;2617;51.006;12.436;2023-05-10T00:21:20;10.80;99.90
5196;DHT22;2617;51.006;12.436;2023-05-10T00:26:22;10.80;99.90
5196;DHT22;2617;51.006;12.436;2023-05-10T00:31:25;10.80;99.90
5196;DHT22;2617;51.006;12.436;2023-05-10T00:36:27;10.70;99.90
5196;DHT22;2617;51.006;12.436;2023-05-10T00:41:30;10.60;99.90
5196;DHT22;2617;51.006;12.436;2023-05-10T00:46:34;10.40;99.90
5196;DHT22;2617;51.006;12.436;2023-05-10T00:51:36;10.30;99.90
5196;DHT22;2617;51.006;12.436;2023-05-10T00:56:39;10.20;99.90
5196;DHT22;2617;51.006;12.436;2023-05-10T01:01:42;10.10;99.90
5196;DHT22;2617;51.006;12.436;2023-05-10T01:06:44;9.80;99.90
5196;DHT22;2617;51.006;12.436;2023-05-10T01:11:47;9.80;99.90
5196;DHT22;2617;51.006;12.436;2023-05-10T01:16:49;9.80;99.90
5196;DHT22;2617;51.006;12.436;2023-05-10T01:22:04;9.70;99.90
5196;DHT22;2617;51.006;12.436;2023-05-10T01:27:37;9.70;99.90
5196;DHT22;2617;51.006;12.436;2023-05-10T01:32:48;9.60;99.90
5196;DHT22;2617;51.006;12.436;2023-05-10T01:37:59;9.50;99.90
5196;DHT22;2617;51.006;12.436;2023-05-10T01:43:21;9.40;99.90
5196;DHT22;2617;51.006;12.436;2023-05-10T01:48:22;9.40;99.90
5196;DHT22;2617;51.006;12.436;2023-05-10T01:53:24;9.40;99.90
5196;DHT22;2617;51.006;12.436;2023-05-10T01:58:29;9.30;99.90
5196;DHT22;2617;51.006;12.436;2023-05-10T02:03:32;9.30;99.90
5196;DHT22;2617;51.006;12.436;2023-05-10T02:08:35;9.30;99.90
5196;DHT22;2617;51.006;12.436;2023-05-10T02:13:37;9.30;99.90
5196;DHT22;2617;51.006;12.436;2023-05-10T02:18:39;9.20;99.90
5196;DHT22;2617;51.006;12.436;2023-05-10T02:23:43;9.10;99.90
5196;DHT22;2617;51.006;12.436;2023-05-10T02:28:45;9.10;99.90
5196;DHT22;2617;51.006;12.436;2023-05-10T02:33:48;9.10;99.90
5196;DHT22;2617;51.006;12.436;2023-05-10T02:38:51;9.10;99.90
5196;DHT22;2617;51.006;12.436;2023-05-10T02:43:55;9.10;99.90
5196;DHT22;2617;51.006;12.436;2023-05-10T02:48:56;9.00;99.90
5196;DHT22;2617;51.006;12.436;2023-05-10T02:54:01;9.00;99.90
5196;DHT22;2617;51.006;12.436;2023-05-10T02:59:01;8.90;99.90
5196;DHT22;2617;51.006;12.436;2023-05-10T03:04:03;9.00;99.90
5196;DHT22;2617;51.006;12.436;2023-05-10T03:09:06;9.00;99.90
5196;DHT22;2617;51.006;12.436;2023-05-10T03:14:16;9.10;99.90
5196;DHT22;2617;51.006;12.436;2023-05-10T03:19:52;9.10;99.90
5196;DHT22;2617;51.006;12.436;2023-05-10T03:24:53;9.10;99.90
5196;DHT22;2617;51.006;12.436;2023-05-10T03:29:55;9.20;99.90
5196;DHT22;2617;51.006;12.436;2023-05-10T03:34:58;9.40;99.90
5196;DHT22;2617;51.006;12.436;2023-05-10T03:40:01;9.70;99.90
5196;DHT22;2617;51.006;12.436;2023-05-10T03:45:04;9.70;99.90
5196;DHT22;2617;51.006;12.436;2023-05-10T03:50:07;10.10;99.90
5196;DHT22;2617;51.006;12.436;2023-05-10T03:55:10;11.50;99.90
5196;DHT22;2617;51.006;12.436;2023-05-10T04:00:12;13.20;99.90
5196;DHT22;2617;51.006;12.436;2023-05-10T04:05:15;14.60;96.60
5196;DHT22;2617;51.006;12.436;2023-05-10T04:10:18;15.70;93.80
5196;DHT22;2617;51.006;12.436;2023-05-10T04:15:20;16.90;91.60
5196;DHT22;2617;51.006;12.436;2023-05-10T04:20:23;18.20;88.10
5196;DHT22;2617;51.006;12.436;2023-05-10T04:25:25;19.30;83.50
5196;DHT22;2617;51.006;12.436;2023-05-10T04:30:29;20.60;77.60
5196;DHT22;2617;51.006;12.436;2023-05-10T04:35:31;21.30;74.30
5196;DHT22;2617;51.006;12.436;2023-05-10T04:40:33;21.90;71.50
5196;DHT22;2617;51.006;12.436;2023-05-10T04:45:36;21.20;70.30
5196;DHT22;2617;51.006;12.436;2023-05-10T04:50:38;20.50;72.70
5196;DHT22;2617;51.006;12.436;2023-05-10T04:55:41;20.60;72.60
5196;DHT22;2617;51.006;12.436;2023-05-10T05:00:43;20.20;73.80
5196;DHT22;2617;51.006;12.436;2023-05-10T05:05:45;21.00;73.20
5196;DHT22;2617;51.006;12.436;2023-05-10T05:10:48;20.70;70.60
5196;DHT22;2617;51.006;12.436;2023-05-10T05:15:51;16.30;82.80
5196;DHT22;2617;51.006;12.436;2023-05-10T05:20:53;16.30;82.80
5196;DHT22;2617;51.006;12.436;2023-05-10T05:25:56;15.20;89.50
5196;DHT22;2617;51.006;12.436;2023-05-10T05:30:59;14.50;91.80
5196;DHT22;2617;51.006;12.436;2023-05-10T05:36:03;14.20;94.80
5196;DHT22;2617;51.006;12.436;2023-05-10T05:41:06;14.20;94.70
5196;DHT22;2617;51.006;12.436;2023-05-10T05:46:08;14.30;95.20
5196;DHT22;2617;51.006;12.436;2023-05-10T05:51:10;14.60;95.20
5196;DHT22;2617;51.006;12.436;2023-05-10T05:56:13;14.80;95.00
5196;DHT22;2617;51.006;12.436;2023-05-10T06:01:18;14.90;94.20
5196;DHT22;2617;51.006;12.436;2023-05-10T06:06:21;14.90;95.00
5196;DHT22;2617;51.006;12.436;2023-05-10T06:11:23;15.00;95.30
5196;DHT22;2617;51.006;12.436;2023-05-10T06:16:26;15.00;95.10
5196;DHT22;2617;51.006;12.436;2023-05-10T06:21:28;14.90;95.30
5196;DHT22;2617;51.006;12.436;2023-05-10T06:26:31;14.90;95.60
5196;DHT22;2617;51.006;12.436;2023-05-10T06:31:33;15.00;96.00
5196;DHT22;2617;51.006;12.436;2023-05-10T06:36:36;15.00;95.80
5196;DHT22;2617;51.006;12.436;2023-05-10T06:41:38;15.20;96.00
5196;DHT22;2617;51.006;12.436;2023-05-10T06:46:41;15.60;95.40
5196;DHT22;2617;51.006;12.436;2023-05-10T06:51:43;16.10;95.10
5196;DHT22;2617;51.006;12.436;2023-05-10T06:56:45;16.60;93.60
5196;DHT22;2617;51.006;12.436;2023-05-10T07:01:48;16.60;93.90
5196;DHT22;2617;51.006;12.436;2023-05-10T07:06:50;16.20;94.00
5196;DHT22;2617;51.006;12.436;2023-05-10T07:11:53;16.10;94.40
5196;DHT22;2617;51.006;12.436;2023-05-10T07:16:56;15.70;95.50
5196;DHT22;2617;51.006;12.436;2023-05-10T07:21:59;15.50;96.60
5196;DHT22;2617;51.006;12.436;2023-05-10T07:27:02;15.50;96.60
5196;DHT22;2617;51.006;12.436;2023-05-10T07:32:05;15.40;97.90
5196;DHT22;2617;51.006;12.436;2023-05-10T07:37:08;15.00;99.90
5196;DHT22;2617;51.006;12.436;2023-05-10T07:42:10;15.00;99.90
5196;DHT22;2617;51.006;12.436;2023-05-10T07:47:13;14.80;99.90
5196;DHT22;2617;51.006;12.436;2023-05-10T07:52:15;14.70;99.90
5196;DHT22;2617;51.006;12.436;2023-05-10T07:57:17;14.40;99.90
5196;DHT22;2617;51.006;12.436;2023-05-10T08:02:20;14.00;99.90
5196;DHT22;2617;51.006;12.436;2023-05-10T08:07:22;13.80;99.90
5196;DHT22;2617;51.006;12.436;2023-05-10T08:12:26;13.50;99.90
5196;DHT22;2617;51.006;12.436;2023-05-10T08:17:28;13.50;99.90
5196;DHT22;2617;51.006;12.436;2023-05-10T08:22:31;13.40;99.90
5196;DHT22;2617;51.006;12.436;2023-05-10T08:27:34;13.30;99.90
5196;DHT22;2617;51.006;12.436;2023-05-10T08:32:36;13.10;99.90
5196;DHT22;2617;51.006;12.436;2023-05-10T08:37:39;13.10;99.90
5196;DHT22;2617;51.006;12.436;2023-05-10T08:43:04;13.10;99.90
5196;DHT22;2617;51.006;12.436;2023-05-10T08:48:07;13.10;99.90
5196;DHT22;2617;51.006;12.436;2023-05-10T08:53:10;13.20;99.90
5196;DHT22;2617;51.006;12.436;2023-05-10T08:58:19;13.20;99.90
5196;DHT22;2617;51.006;12.436;2023-05-10T09:03:22;13.20;99.90
5196;DHT22;2617;51.006;12.436;2023-05-10T09:08:25;13.10;99.90
5196;DHT22;2617;51.006;12.436;2023-05-10T09:13:27;13.10;99.90
5196;DHT22;2617;51.006;12.436;2023-05-10T09:18:30;13.10;99.90
5196;DHT22;2617;51.006;12.436;2023-05-10T09:23:32;13.00;99.90
5196;DHT22;2617;51.006;12.436;2023-05-10T09:28:49;13.00;99.90
5196;DHT22;2617;51.006;12.436;2023-05-10T09:33:44;13.10;99.90
5196;DHT22;2617;51.006;12.436;2023-05-10T09:38:47;13.20;99.90
5196;DHT22;2617;51.006;12.436;2023-05-10T09:43:50;13.50;99.90
5196;DHT22;2617;51.006;12.436;2023-05-10T09:48:52;13.90;99.90
5196;DHT22;2617;51.006;12.436;2023-05-10T09:59:11;14.50;99.90
5196;DHT22;2617;51.006;12.436;2023-05-10T10:04:13;14.70;99.90
5196;DHT22;2617;51.006;12.436;2023-05-10T10:09:16;14.70;99.90
5196;DHT22;2617;51.006;12.436;2023-05-10T10:14:20;14.80;99.90
5196;DHT22;2617;51.006;12.436;2023-05-10T10:19:23;14.90;99.90
5196;DHT22;2617;51.006;12.436;2023-05-10T10:24:26;15.00;99.90
5196;DHT22;2617;51.006;12.436;2023-05-10T10:29:35;15.20;99.90
5196;DHT22;2617;51.006;12.436;2023-05-10T10:34:35;15.30;99.90
5196;DHT22;2617;51.006;12.436;2023-05-10T10:39:37;15.10;99.90
5196;DHT22;2617;51.006;12.436;2023-05-10T10:44:40;15.10;99.90
5196;DHT22;2617;51.006;12.436;2023-05-10T10:55:18;15.30;99.90
5196;DHT22;2617;51.006;12.436;2023-05-10T11:00:22;15.20;99.90
5196;DHT22;2617;51.006;12.436;2023-05-10T11:05:37;15.20;99.90
5196;DHT22;2617;51.006;12.436;2023-05-10T11:10:48;15.10;99.90
5196;DHT22;2617;51.006;12.436;2023-05-10T11:15:48;15.10;99.90
5196;DHT22;2617;51.006;12.436;2023-05-10T11:20:52;15.20;99.90
5196;DHT22;2617;51.006;12.436;2023-05-10T11:26:00;15.30;99.90
5196;DHT22;2617;51.006;12.436;2023-05-10T11:31:02;15.60;99.90
5196;DHT22;2617;51.006;12.436;2023-05-10T11:36:04;15.90;99.90
5196;DHT22;2617;51.006;12.436;2023-05-10T11:41:08;16.30;99.90
5196;DHT22;2617;51.006;12.436;2023-05-10T11:46:11;16.70;99.90
5196;DHT22;2617;51.006;12.436;2023-05-10T11:51:13;17.00;99.90
5196;DHT22;2617;51.006;12.436;2023-05-10T11:56:15;17.10;99.90
5196;DHT22;2617;51.006;12.436;2023-05-10T12:01:18;17.30;99.90
5196;DHT22;2617;51.006;12.436;2023-05-10T12:06:21;17.70;99.90
5196;DHT22;2617;51.006;12.436;2023-05-10T12:11:26;17.70;99.90
5196;DHT22;2617;51.006;12.436;2023-05-10T12:16:29;17.70;99.90
5196;DHT22;2617;51.006;12.436;2023-05-10T12:21:31;17.50;99.90
5196;DHT22;2617;51.006;12.436;2023-05-10T12:26:34;17.20;99.90
5196;DHT22;2617;51.006;12.436;2023-05-10T12:31:52;17.10;99.90
5196;DHT22;2617;51.006;12.436;2023-05-10T12:36:55;17.20;99.90
5196;DHT22;2617;51.006;12.436;2023-05-10T12:41:58;17.00;99.90
5196;DHT22;2617;51.006;12.436;2023-05-10T12:47:01;17.00;99.90
5196;DHT22;2617;51.006;12.436;2023-05-10T12:52:03;17.20;99.90
5196;DHT22;2617;51.006;12.436;2023-05-10T12:57:06;17.30;99.90
5196;DHT22;2617;51.006;12.436;2023-05-10T13:02:08;17.40;99.90
5196;DHT22;2617;51.006;12.436;2023-05-10T13:07:12;17.50;99.90
5196;DHT22;2617;51.006;12.436;2023-05-10T13:12:14;17.50;99.90
5196;DHT22;2617;51.006;12.436;2023-05-10T13:17:16;17.50;99.90
5196;DHT22;2617;51.006;12.436;2023-05-10T13:22:19;17.40;99.90
5196;DHT22;2617;51.006;12.436;2023-05-10T13:27:22;17.50;99.90
5196;DHT22;2617;51.006;12.436;2023-05-10T13:32:25;17.40;99.90
5196;DHT22;2617;51.006;12.436;2023-05-10T13:37:27;17.50;99.90
5196;DHT22;2617;51.006;12.436;2023-05-10T13:42:29;17.50;99.90
5196;DHT22;2617;51.006;12.436;2023-05-10T13:47:32;17.60;99.90
5196;DHT22;2617;51.006;12.436;2023-05-10T13:52:35;17.70;99.90
5196;DHT22;2617;51.006;12.436;2023-05-10T13:57:38;17.70;99.90
5196;DHT22;2617;51.006;12.436;2023-05-10T14:02:40;17.60;99.90
5196;DHT22;2617;51.006;12.436;2023-05-10T14:07:43;17.50;99.90
5196;DHT22;2617;51.006;12.436;2023-05-10T14:12:45;17.40;99.90
5196;DHT22;2617;51.006;12.436;2023-05-10T14:17:47;17.30;99.90
5196;DHT22;2617;51.006;12.436;2023-05-10T14:22:50;17.30;99.90
5196;DHT22;2617;51.006;12.436;2023-05-10T14:27:52;17.30;99.90
5196;DHT22;2617;51.006;12.436;2023-05-10T14:32:55;17.20;99.90
5196;DHT22;2617;51.006;12.436;2023-05-10T14:37:59;17.20;99.90
5196;DHT22;2617;51.006;12.436;2023-05-10T14:43:01;17.10;99.90
5196;DHT22;2617;51.006;12.436;2023-05-10T14:48:04;16.80;99.90
5196;DHT22;2617;51.006;12.436;2023-05-10T14:53:07;16.40;99.90
5196;DHT22;2617;51.006;12.436;2023-05-10T14:58:10;16.40;99.90
5196;DHT22;2617;51.006;12.436;2023-05-10T15:03:12;16.20;99.90
5196;DHT22;2617;51.006;12.436;2023-05-10T15:08:14;16.10;99.90
5196;DHT22;2617;51.006;12.436;2023-05-10T15:13:17;16.00;99.90
5196;DHT22;2617;51.006;12.436;2023-05-10T15:18:20;15.70;99.90
5196;DHT22;2617;51.006;12.436;2023-05-10T15:23:22;15.70;99.90
5196;DHT22;2617;51.006;12.436;2023-05-10T15:28:25;15.60;99.90
5196;DHT22;2617;51.006;12.436;2023-05-10T15:33:27;15.60;99.90
5196;DHT22;2617;51.006;12.436;2023-05-10T15:38:30;15.60;99.90
5196;DHT22;2617;51.006;12.436;2023-05-10T15:43:32;15.60;99.90
5196;DHT22;2617;51.006;12.436;2023-05-10T15:48:36;15.60;99.90
5196;DHT22;2617;51.006;12.436;2023-05-10T15:53:38;15.70;99.90
5196;DHT22;2617;51.006;12.436;2023-05-10T15:58:41;15.60;99.90
5196;DHT22;2617;51.006;12.436;2023-05-10T16:03:44;15.60;99.90
5196;DHT22;2617;51.006;12.436;2023-05-10T16:08:48;15.70;99.90
5196;DHT22;2617;51.006;12.436;2023-05-10T16:13:50;15.60;99.90
5196;DHT22;2617;51.006;12.436;2023-05-10T16:18:52;15.60;99.90
5196;DHT22;2617;51.006;12.436;2023-05-10T16:23:55;15.60;99.90
5196;DHT22;2617;51.006;12.436;2023-05-10T16:28:58;15.40;99.90
5196;DHT22;2617;51.006;12.436;2023-05-10T16:34:00;15.40;99.90
5196;DHT22;2617;51.006;12.436;2023-05-10T16:39:03;15.30;99.90
5196;DHT22;2617;51.006;12.436;2023-05-10T16:44:05;15.20;99.90
5196;DHT22;2617;51.006;12.436;2023-05-10T16:49:09;15.10;99.90
5196;DHT22;2617;51.006;12.436;2023-05-10T16:54:11;15.00;99.90
5196;DHT22;2617;51.006;12.436;2023-05-10T16:59:13;15.00;99.90
5196;DHT22;2617;51.006;12.436;2023-05-10T17:04:17;14.90;99.90
5196;DHT22;2617;51.006;12.436;2023-05-10T17:09:19;14.80;99.90
5196;DHT22;2617;51.006;12.436;2023-05-10T17:14:21;14.80;99.90
5196;DHT22;2617;51.006;12.436;2023-05-10T17:19:24;14.80;99.90
5196;DHT22;2617;51.006;12.436;2023-05-10T17:24:28;14.70;99.90
5196;DHT22;2617;51.006;12.436;2023-05-10T17:29:31;14.60;99.90
5196;DHT22;2617;51.006;12.436;2023-05-10T17:34:37;14.70;99.90
5196;DHT22;2617;51.006;12.436;2023-05-10T17:39:39;14.60;99.90
5196;DHT22;2617;51.006;12.436;2023-05-10T17:44:44;14.60;99.90
5196;DHT22;2617;51.006;12.436;2023-05-10T17:49:47;14.50;99.90
5196;DHT22;2617;51.006;12.436;2023-05-10T17:54:50;14.40;99.90
5196;DHT22;2617;51.006;12.436;2023-05-10T17:59:53;14.20;99.90
5196;DHT22;2617;51.006;12.436;2023-05-10T18:04:56;14.20;99.90
5196;DHT22;2617;51.006;12.436;2023-05-10T18:09:58;14.20;99.90
5196;DHT22;2617;51.006;12.436;2023-05-10T18:15:00;14.10;99.90
5196;DHT22;2617;51.006;12.436;2023-05-10T18:20:05;14.00;99.90
5196;DHT22;2617;51.006;12.436;2023-05-10T18:25:09;13.90;99.90
5196;DHT22;2617;51.006;12.436;2023-05-10T18:30:13;13.90;99.90
5196;DHT22;2617;51.006;12.436;2023-05-10T18:35:15;13.80;99.90
5196;DHT22;2617;51.006;12.436;2023-05-10T18:40:18;13.70;99.90
5196;DHT22;2617;51.006;12.436;2023-05-10T18:45:22;13.60;99.90
5196;DHT22;2617;51.006;12.436;2023-05-10T18:50:25;13.50;99.90
5196;DHT22;2617;51.006;12.436;2023-05-10T18:55:28;13.50;99.90
5196;DHT22;2617;51.006;12.436;2023-05-10T19:00:31;13.40;99.90
5196;DHT22;2617;51.006;12.436;2023-05-10T19:05:34;13.40;99.90
5196;DHT22;2617;51.006;12.436;2023-05-10T19:10:37;13.40;99.90
5196;DHT22;2617;51.006;12.436;2023-05-10T19:15:40;13.30;99.90
5196;DHT22;2617;51.006;12.436;2023-05-10T19:21:04;13.40;99.90
5196;DHT22;2617;51.006;12.436;2023-05-10T19:26:18;13.30;99.90
5196;DHT22;2617;51.006;12.436;2023-05-10T19:31:26;13.30;99.90
5196;DHT22;2617;51.006;12.436;2023-05-10T19:42:00;13.20;99.90
5196;DHT22;2617;51.006;12.436;2023-05-10T20:03:40;13.20;99.90
5196;DHT22;2617;51.006;12.436;2023-05-10T20:08:42;13.20;99.90
5196;DHT22;2617;51.006;12.436;2023-05-10T20:19:21;13.10;99.90
5196;DHT22;2617;51.006;12.436;2023-05-10T20:29:37;13.10;99.90
5196;DHT22;2617;51.006;12.436;2023-05-10T20:34:39;13.10;99.90
5196;DHT22;2617;51.006;12.436;2023-05-10T20:39:47;13.00;99.90
5196;DHT22;2617;51.006;12.436;2023-05-10T20:50:28;13.00;99.90
5196;DHT22;2617;51.006;12.436;2023-05-10T21:01:04;12.90;99.90
5196;DHT22;2617;51.006;12.436;2023-05-10T21:06:06;12.90;99.90
5196;DHT22;2617;51.006;12.436;2023-05-10T21:11:10;12.90;99.90
5196;DHT22;2617;51.006;12.436;2023-05-10T21:16:13;12.90;99.90
5196;DHT22;2617;51.006;12.436;2023-05-10T21:21:15;12.80;99.90
5196;DHT22;2617;51.006;12.436;2023-05-10T21:26:18;12.90;99.90
5196;DHT22;2617;51.006;12.436;2023-05-10T21:31:20;12.90;99.90
5196;DHT22;2617;51.006;12.436;2023-05-10T21:36:24;12.90;99.90
5196;DHT22;2617;51.006;12.436;2023-05-10T21:41:26;12.90;99.90
5196;DHT22;2617;51.006;12.436;2023-05-10T21:46:28;12.90;99.90
5196;DHT22;2617;51.006;12.436;2023-05-10T21:51:31;12.80;99.90
5196;DHT22;2617;51.006;12.436;2023-05-10T21:56:34;12.80;99.90
5196;DHT22;2617;51.006;12.436;2023-05-10T22:01:37;12.80;99.90
5196;DHT22;2617;51.006;12.436;2023-05-10T22:06:39;12.80;99.90
5196;DHT22;2617;51.006;12.436;2023-05-10T22:11:42;12.80;99.90
5196;DHT22;2617;51.006;12.436;2023-05-10T22:16:45;12.80;99.90
5196;DHT22;2617;51.006;12.436;2023-05-10T22:21:47;12.90;99.90
5196;DHT22;2617;51.006;12.436;2023-05-10T22:26:52;12.90;99.90
5196;DHT22;2617;51.006;12.436;2023-05-10T22:31:52;12.90;99.90
5196;DHT22;2617;51.006;12.436;2023-05-10T22:36:54;12.80;99.90
5196;DHT22;2617;51.006;12.436;2023-05-10T22:41:57;12.90;99.90
5196;DHT22;2617;51.006;12.436;2023-05-10T22:46:59;12.80;99.90
5196;DHT22;2617;51.006;12.436;2023-05-10T22:52:02;12.80;99.90
5196;DHT22;2617;51.006;12.436;2023-05-10T22:57:05;12.80;99.90
5196;DHT22;2617;51.006;12.436;2023-05-10T23:02:08;12.80;99.90
5196;DHT22;2617;51.006;12.436;2023-05-10T23:07:12;12.80;99.90
5196;DHT22;2617;51.006;12.436;2023-05-10T23:12:15;12.80;99.90
5196;DHT22;2617;51.006;12.436;2023-05-10T23:17:17;12.80;99.90
5196;DHT22;2617;51.006;12.436;2023-05-10T23:22:20;12.80;99.90
5196;DHT22;2617;51.006;12.436;2023-05-10T23:27:22;12.80;99.90
5196;DHT22;2617;51.006;12.436;2023-05-10T23:32:25;12.80;99.90
5196;DHT22;2617;51.006;12.436;2023-05-10T23:37:28;12.70;99.90
5196;DHT22;2617;51.006;12.436;2023-05-10T23:42:31;12.60;99.90
5196;DHT22;2617;51.006;12.436;2023-05-10T23:47:33;12.60;99.90
5196;DHT22;2617;51.006;12.436;2023-05-10T23:52:36;12.50;99.90
5196;DHT22;2617;51.006;12.436;2023-05-10T23:57:38;12.50;99.90
